Darstellungsparameter: Aktuell verwendete Einstellungen:
Skalierung der Graphiken ... ?
xyx+y,   Skalierungsfaktor:      Skalierung: Modus: x, Faktor: 1
Darstellungszeitraum ... ?
Vom - - bis: - -   Zeitraum: 15.04.2021 - 15.04.2021
Min/Max/Avg-Anzeige ... ?
Zeige MMA aktuell
Zeige MMA Monat
Zeige MMA alles
Zeige --A aktuell
Zeige --A Monat
Zeige --A alles
Keine MMA-Anzeige
MMA:
Minimum Maximum Average (ber die Originaldaten)
MMA-Basis: 15.04.2021 - 15.04.2021
Quicknavigation für Darstellung... ?
Tage:      1T, 2T, 3T, 5T -1T -2T -3T -5T +1T +2T +3T +5T
Wochen: 1W, 2W, 3W -1W -2W -3W +1W +2W +3W
Monate: 1M, 3M, 6M -1M -3M -6M +1M +3M +6M
Jahre:    1J, 3J, 5J, 10J -1J -3J -5J -10J +1J +3J +5J +10J
Nutze für die Darstellung ... ?
Originaldaten oder Mittelwerte auf ...
Stundenbasis Tagesbasis Wochenbasis
Monatsbasis Jahresbasis      Datenbasis: Original-Daten
Darstellen als:
Statistik (Auto) Statistik J:M      Darstellung:
Zur Graphik,    zurück zur Übersicht aller Sensoren.
 
Tabellarische Datenbersicht: ?
 
Sensor: Nr:Datum:Temp:Feuchte:Taupunkt:
Aussen-T/F 1 15-04-2021 00:00:00 1.7 C 90 % 0.24 C
2 15-04-2021 00:05:00 1.7 C 90 % 0.24 C
3 15-04-2021 00:10:00 1.7 C 90 % 0.24 C
4 15-04-2021 00:15:00 1.7 C 91 % 0.39 C
5 15-04-2021 00:20:00 1.7 C 91 % 0.39 C
6 15-04-2021 00:25:00 1.7 C 91 % 0.39 C
7 15-04-2021 00:30:00 1.6 C 90 % 0.14 C
8 15-04-2021 00:35:00 1.4 C 90 % -0.06 C
9 15-04-2021 00:40:00 1.3 C 91 % 0 C
10 15-04-2021 00:45:00 1.2 C 90 % -0.25 C
11 15-04-2021 00:50:00 1.1 C 91 % -0.2 C
12 15-04-2021 00:55:00 1.1 C 91 % -0.2 C
13 15-04-2021 01:00:00 1 C 91 % -0.3 C
14 15-04-2021 01:05:00 1 C 92 % -0.15 C
15 15-04-2021 01:10:00 1 C 92 % -0.15 C
16 15-04-2021 01:15:00 0.9 C 92 % -0.25 C
17 15-04-2021 01:20:00 0.9 C 92 % -0.25 C
18 15-04-2021 01:25:00 0.8 C 91 % -0.5 C
19 15-04-2021 01:30:00 0.7 C 92 % -0.45 C
20 15-04-2021 01:35:00 0.6 C 92 % -0.55 C
21 15-04-2021 01:40:00 0.4 C 92 % -0.74 C
22 15-04-2021 01:45:00 0.4 C 92 % -0.74 C
23 15-04-2021 01:50:00 0.3 C 92 % -0.84 C
24 15-04-2021 01:55:00 0.3 C 92 % -0.84 C
25 15-04-2021 02:00:00 0.2 C 92 % -0.94 C
Sensor: Nr:Datum:Temp:Feuchte:Taupunkt:
Aussen-T/F 26 15-04-2021 02:05:00 0.1 C 92 % -1.04 C
27 15-04-2021 02:10:00 0 C 92 % -1.14 C
28 15-04-2021 02:15:00 -0.1 C 92 % -1.24 C
29 15-04-2021 02:20:00 -0.1 C 92 % -1.24 C
30 15-04-2021 02:25:00 -0.2 C 93 % -1.19 C
31 15-04-2021 02:30:00 -0.2 C 93 % -1.19 C
32 15-04-2021 02:35:00 -0.3 C 93 % -1.29 C
33 15-04-2021 02:40:00 -0.3 C 93 % -1.29 C
34 15-04-2021 02:45:00 -0.3 C 93 % -1.29 C
35 15-04-2021 02:50:00 -0.3 C 93 % -1.29 C
36 15-04-2021 02:55:00 -0.3 C 93 % -1.29 C
37 15-04-2021 03:00:00 -0.3 C 93 % -1.29 C
38 15-04-2021 03:05:00 -0.3 C 93 % -1.29 C
39 15-04-2021 03:10:00 -0.3 C 93 % -1.29 C
40 15-04-2021 03:15:00 -0.3 C 94 % -1.15 C
41 15-04-2021 03:20:00 -0.4 C 94 % -1.25 C
42 15-04-2021 03:25:00 -0.4 C 94 % -1.25 C
43 15-04-2021 03:30:00 -0.5 C 93 % -1.49 C
44 15-04-2021 03:35:00 -0.6 C 93 % -1.59 C
45 15-04-2021 03:40:00 -0.6 C 94 % -1.44 C
46 15-04-2021 03:45:00 -0.6 C 94 % -1.44 C
47 15-04-2021 03:50:00 -0.6 C 94 % -1.44 C
48 15-04-2021 03:55:00 -0.7 C 94 % -1.54 C
49 15-04-2021 04:00:00 -0.7 C 94 % -1.54 C
50 15-04-2021 04:05:00 -0.8 C 94 % -1.64 C
Sensor: Nr:Datum:Temp:Feuchte:Taupunkt:
Aussen-T/F 51 15-04-2021 04:10:00 -0.8 C 94 % -1.64 C
52 15-04-2021 04:15:00 -0.9 C 94 % -1.74 C
53 15-04-2021 04:20:00 -0.9 C 94 % -1.74 C
54 15-04-2021 04:25:00 -0.9 C 94 % -1.74 C
55 15-04-2021 04:30:00 -0.9 C 94 % -1.74 C
56 15-04-2021 04:35:00 -0.9 C 94 % -1.74 C
57 15-04-2021 04:40:00 -0.9 C 94 % -1.74 C
58 15-04-2021 04:45:00 -0.9 C 94 % -1.74 C
59 15-04-2021 04:50:00 -0.9 C 94 % -1.74 C
60 15-04-2021 04:55:00 -0.9 C 94 % -1.74 C
61 15-04-2021 05:00:00 -0.8 C 94 % -1.64 C
62 15-04-2021 05:05:00 -0.8 C 94 % -1.64 C
63 15-04-2021 05:10:00 -0.7 C 95 % -1.4 C
64 15-04-2021 05:15:00 -0.6 C 95 % -1.3 C
65 15-04-2021 05:20:00 -0.6 C 95 % -1.3 C
66 15-04-2021 05:25:00 -0.7 C 95 % -1.4 C
67 15-04-2021 05:30:00 -0.7 C 95 % -1.4 C
68 15-04-2021 05:35:00 -0.8 C 94 % -1.64 C
69 15-04-2021 05:40:00 -0.8 C 94 % -1.64 C
70 15-04-2021 05:45:00 -0.8 C 94 % -1.64 C
71 15-04-2021 05:50:00 -0.8 C 94 % -1.64 C
72 15-04-2021 05:55:00 -0.9 C 94 % -1.74 C
73 15-04-2021 06:00:00 -0.9 C 94 % -1.74 C
74 15-04-2021 06:05:00 -0.9 C 95 % -1.6 C
75 15-04-2021 06:10:00 -1 C 95 % -1.7 C
Sensor: Nr:Datum:Temp:Feuchte:Taupunkt:
Aussen-T/F 76 15-04-2021 06:15:00 -1.1 C 95 % -1.8 C
77 15-04-2021 06:20:00 -1.1 C 95 % -1.8 C
78 15-04-2021 06:25:00 -1.1 C 95 % -1.8 C
79 15-04-2021 06:30:00 -1.1 C 95 % -1.8 C
80 15-04-2021 06:35:00 -1.1 C 95 % -1.8 C
81 15-04-2021 06:40:00 -1.2 C 95 % -1.9 C
82 15-04-2021 06:45:00 -1.2 C 95 % -1.9 C
83 15-04-2021 06:50:00 -1.2 C 95 % -1.9 C
84 15-04-2021 06:55:00 -1.3 C 95 % -2 C
85 15-04-2021 07:00:00 -1.3 C 95 % -2 C
86 15-04-2021 07:05:00 -1.3 C 95 % -2 C
87 15-04-2021 07:10:00 -1.2 C 95 % -1.9 C
88 15-04-2021 07:15:00 -1.2 C 95 % -1.9 C
89 15-04-2021 07:20:00 -1.1 C 95 % -1.8 C
90 15-04-2021 07:25:00 -1.1 C 95 % -1.8 C
91 15-04-2021 07:30:00 -1.1 C 95 % -1.8 C
92 15-04-2021 07:35:00 -1 C 95 % -1.7 C
93 15-04-2021 07:40:00 -1 C 95 % -1.7 C
94 15-04-2021 07:45:00 -1 C 95 % -1.7 C
95 15-04-2021 07:50:00 -0.9 C 95 % -1.6 C
96 15-04-2021 07:55:00 -0.9 C 95 % -1.6 C
97 15-04-2021 08:00:00 -0.9 C 95 % -1.6 C
98 15-04-2021 08:05:00 -0.9 C 95 % -1.6 C
99 15-04-2021 08:10:00 -0.8 C 95 % -1.5 C
100 15-04-2021 08:15:00 -0.8 C 95 % -1.5 C
Sensor: Nr:Datum:Temp:Feuchte:Taupunkt:
Aussen-T/F 101 15-04-2021 08:20:00 -0.7 C 95 % -1.4 C
102 15-04-2021 08:25:00 -0.7 C 95 % -1.4 C
103 15-04-2021 08:30:00 -0.6 C 95 % -1.3 C
104 15-04-2021 08:35:00 -0.6 C 95 % -1.3 C
105 15-04-2021 08:40:00 -0.5 C 95 % -1.2 C
106 15-04-2021 08:45:00 -0.4 C 95 % -1.1 C
107 15-04-2021 08:50:00 -0.3 C 95 % -1 C
108 15-04-2021 08:55:00 -0.3 C 95 % -1 C
109 15-04-2021 09:00:00 -0.2 C 95 % -0.9 C
110 15-04-2021 09:05:00 -0.2 C 95 % -0.9 C
111 15-04-2021 09:10:00 -0.1 C 95 % -0.8 C
112 15-04-2021 09:15:00 0.1 C 96 % -0.46 C
113 15-04-2021 09:20:00 0.2 C 96 % -0.36 C
114 15-04-2021 09:25:00 0.4 C 96 % -0.16 C
115 15-04-2021 09:30:00 0.6 C 96 % 0.04 C
116 15-04-2021 09:35:00 0.7 C 96 % 0.14 C
117 15-04-2021 09:40:00 0.8 C 96 % 0.24 C
118 15-04-2021 09:45:00 0.9 C 96 % 0.34 C
119 15-04-2021 09:50:00 1.1 C 96 % 0.54 C
120 15-04-2021 09:55:00 1.2 C 96 % 0.63 C
121 15-04-2021 10:00:00 1.3 C 96 % 0.73 C
122 15-04-2021 10:05:00 1.5 C 96 % 0.93 C
123 15-04-2021 10:10:00 1.7 C 96 % 1.13 C
124 15-04-2021 10:15:00 1.8 C 96 % 1.23 C
125 15-04-2021 10:20:00 2.1 C 96 % 1.53 C
Sensor: Nr:Datum:Temp:Feuchte:Taupunkt:
Aussen-T/F 126 15-04-2021 10:25:00 2.3 C 96 % 1.73 C
127 15-04-2021 10:30:00 2.6 C 96 % 2.03 C
128 15-04-2021 10:35:00 2.8 C 96 % 2.23 C
129 15-04-2021 10:40:00 3.1 C 96 % 2.53 C
130 15-04-2021 10:45:00 3.2 C 96 % 2.63 C
131 15-04-2021 10:50:00 3.4 C 96 % 2.82 C
132 15-04-2021 10:55:00 3.7 C 95 % 2.98 C
133 15-04-2021 11:00:00 3.9 C 94 % 3.02 C
134 15-04-2021 11:05:00 4.3 C 92 % 3.12 C
135 15-04-2021 11:10:00 4.6 C 90 % 3.1 C
136 15-04-2021 11:15:00 4.9 C 87 % 2.92 C
137 15-04-2021 11:20:00 5.4 C 85 % 3.09 C
138 15-04-2021 11:25:00 5.8 C 83 % 3.14 C
139 15-04-2021 11:30:00 6.1 C 78 % 2.56 C
140 15-04-2021 11:35:00 6.3 C 76 % 2.39 C
141 15-04-2021 11:40:00 6.3 C 74 % 2.02 C
142 15-04-2021 11:45:00 6.5 C 74 % 2.21 C
143 15-04-2021 11:50:00 6.8 C 72 % 2.12 C
144 15-04-2021 11:55:00 7 C 70 % 1.91 C
145 15-04-2021 12:00:00 7.2 C 69 % 1.9 C
146 15-04-2021 12:05:00 7.4 C 69 % 2.1 C
147 15-04-2021 12:10:00 7.6 C 67 % 1.88 C
148 15-04-2021 12:15:00 7.7 C 66 % 1.76 C
149 15-04-2021 12:20:00 7.8 C 65 % 1.64 C
150 15-04-2021 12:25:00 7.9 C 65 % 1.74 C
Sensor: Nr:Datum:Temp:Feuchte:Taupunkt:
Aussen-T/F 151 15-04-2021 12:30:00 7.8 C 65 % 1.64 C
152 15-04-2021 12:35:00 7.8 C 65 % 1.64 C
153 15-04-2021 12:40:00 7.8 C 64 % 1.43 C
154 15-04-2021 12:45:00 7.7 C 65 % 1.55 C
155 15-04-2021 12:50:00 7.4 C 67 % 1.69 C
156 15-04-2021 12:55:00 7 C 71 % 2.11 C
157 15-04-2021 13:00:00 6.5 C 74 % 2.21 C
158 15-04-2021 13:05:00 6.3 C 76 % 2.39 C
159 15-04-2021 13:10:00 6.4 C 75 % 2.3 C
160 15-04-2021 13:15:00 6.7 C 74 % 2.4 C
161 15-04-2021 13:20:00 7.1 C 71 % 2.21 C
162 15-04-2021 13:25:00 7.5 C 68 % 1.99 C
163 15-04-2021 13:30:00 7.8 C 68 % 2.27 C
164 15-04-2021 13:35:00 8 C 66 % 2.05 C
165 15-04-2021 13:40:00 8.2 C 63 % 1.59 C
166 15-04-2021 13:45:00 8.4 C 64 % 2 C
167 15-04-2021 13:50:00 8.5 C 63 % 1.87 C
168 15-04-2021 13:55:00 8.5 C 60 % 1.19 C
169 15-04-2021 14:00:00 8.5 C 63 % 1.87 C
170 15-04-2021 14:05:00 8.5 C 60 % 1.19 C
171 15-04-2021 14:10:00 8.4 C 60 % 1.1 C
172 15-04-2021 14:15:00 8.4 C 58 % 0.63 C
173 15-04-2021 14:20:00 8.7 C 59 % 1.15 C
174 15-04-2021 14:25:00 9 C 57 % 0.95 C
175 15-04-2021 14:30:00 9.2 C 59 % 1.62 C
Sensor: Nr:Datum:Temp:Feuchte:Taupunkt:
Aussen-T/F 176 15-04-2021 14:35:00 9.2 C 57 % 1.14 C
177 15-04-2021 14:40:00 8.9 C 59 % 1.34 C
178 15-04-2021 14:45:00 8.6 C 59 % 1.05 C
179 15-04-2021 14:50:00 8.3 C 61 % 1.23 C
180 15-04-2021 14:55:00 8.2 C 63 % 1.59 C
181 15-04-2021 15:00:00 8.3 C 65 % 2.12 C
182 15-04-2021 15:05:00 8.4 C 63 % 1.78 C
183 15-04-2021 15:10:00 8.6 C 61 % 1.52 C
184 15-04-2021 15:15:00 8.7 C 62 % 1.84 C
185 15-04-2021 15:20:00 9 C 59 % 1.43 C
186 15-04-2021 15:25:00 9.3 C 59 % 1.71 C
187 15-04-2021 15:30:00 9.6 C 56 % 1.27 C
188 15-04-2021 15:35:00 9.6 C 58 % 1.75 C
189 15-04-2021 15:40:00 9.2 C 57 % 1.14 C
190 15-04-2021 15:45:00 9.1 C 60 % 1.76 C
191 15-04-2021 15:50:00 9.4 C 59 % 1.81 C
192 15-04-2021 15:55:00 9.6 C 57 % 1.51 C
193 15-04-2021 16:00:00 9.1 C 59 % 1.52 C
194 15-04-2021 16:05:00 8.7 C 61 % 1.61 C
195 15-04-2021 16:10:00 8.2 C 67 % 2.45 C
196 15-04-2021 16:15:00 7.8 C 72 % 3.08 C
197 15-04-2021 16:20:00 7.6 C 76 % 3.65 C
198 15-04-2021 16:25:00 7.3 C 78 % 3.73 C
199 15-04-2021 16:30:00 7.1 C 78 % 3.53 C
200 15-04-2021 16:35:00 6.8 C 80 % 3.6 C
Sensor: Nr:Datum:Temp:Feuchte:Taupunkt:
Aussen-T/F 201 15-04-2021 16:40:00 6.7 C 81 % 3.68 C
202 15-04-2021 16:45:00 6.7 C 80 % 3.5 C
203 15-04-2021 16:50:00 6.7 C 81 % 3.68 C
204 15-04-2021 16:55:00 6.9 C 78 % 3.34 C
205 15-04-2021 17:00:00 7.4 C 78 % 3.82 C
206 15-04-2021 17:05:00 7.9 C 70 % 2.78 C
207 15-04-2021 17:10:00 8.1 C 67 % 2.35 C
208 15-04-2021 17:15:00 8.1 C 66 % 2.14 C
209 15-04-2021 17:20:00 8.1 C 69 % 2.77 C
210 15-04-2021 17:25:00 8.2 C 70 % 3.06 C
211 15-04-2021 17:30:00 8 C 69 % 2.67 C
212 15-04-2021 17:35:00 7.9 C 71 % 2.98 C
213 15-04-2021 17:40:00 7.9 C 69 % 2.57 C
214 15-04-2021 17:45:00 7.9 C 70 % 2.78 C
215 15-04-2021 17:50:00 7.9 C 70 % 2.78 C
216 15-04-2021 17:55:00 8 C 69 % 2.67 C
217 15-04-2021 18:00:00 8.4 C 68 % 2.85 C
218 15-04-2021 18:05:00 8.9 C 64 % 2.47 C
219 15-04-2021 18:10:00 9.3 C 64 % 2.85 C
220 15-04-2021 18:15:00 9.5 C 60 % 2.13 C
221 15-04-2021 18:20:00 9.6 C 62 % 2.69 C
222 15-04-2021 18:25:00 9.3 C 59 % 1.71 C
223 15-04-2021 18:30:00 9 C 59 % 1.43 C
224 15-04-2021 18:35:00 8.7 C 60 % 1.38 C
225 15-04-2021 18:40:00 8.6 C 63 % 1.97 C
Sensor: Nr:Datum:Temp:Feuchte:Taupunkt:
Aussen-T/F 226 15-04-2021 18:45:00 8.4 C 61 % 1.33 C
227 15-04-2021 18:50:00 8.4 C 61 % 1.33 C
228 15-04-2021 18:55:00 8.6 C 63 % 1.97 C
229 15-04-2021 19:00:00 8.9 C 59 % 1.34 C
230 15-04-2021 19:05:00 9 C 59 % 1.43 C
231 15-04-2021 19:10:00 8.9 C 57 % 0.86 C
232 15-04-2021 19:15:00 8.4 C 58 % 0.63 C
233 15-04-2021 19:20:00 8 C 60 % 0.72 C
234 15-04-2021 19:25:00 7.8 C 61 % 0.76 C
235 15-04-2021 19:30:00 7.6 C 61 % 0.57 C
236 15-04-2021 19:35:00 7.4 C 63 % 0.83 C
237 15-04-2021 19:40:00 7.3 C 65 % 1.17 C
238 15-04-2021 19:45:00 7.3 C 64 % 0.95 C
239 15-04-2021 19:50:00 7.2 C 66 % 1.29 C
240 15-04-2021 19:55:00 7.2 C 69 % 1.9 C
241 15-04-2021 20:00:00 7.1 C 70 % 2.01 C
242 15-04-2021 20:05:00 7 C 71 % 2.11 C
243 15-04-2021 20:10:00 6.8 C 72 % 2.12 C
244 15-04-2021 20:15:00 6.6 C 72 % 1.92 C
245 15-04-2021 20:20:00 6.4 C 72 % 1.73 C
246 15-04-2021 20:25:00 6.2 C 74 % 1.92 C
247 15-04-2021 20:30:00 5.9 C 75 % 1.82 C
248 15-04-2021 20:35:00 5.8 C 76 % 1.91 C
249 15-04-2021 20:40:00 5.7 C 77 % 1.99 C
250 15-04-2021 20:45:00 5.6 C 78 % 2.07 C
Sensor: Nr:Datum:Temp:Feuchte:Taupunkt:
Aussen-T/F 251 15-04-2021 20:50:00 5.5 C 79 % 2.16 C
252 15-04-2021 20:55:00 5.4 C 79 % 2.06 C
253 15-04-2021 21:00:00 5.3 C 80 % 2.14 C
254 15-04-2021 21:05:00 5.3 C 80 % 2.14 C
255 15-04-2021 21:10:00 5.2 C 80 % 2.04 C
256 15-04-2021 21:15:00 5.2 C 80 % 2.04 C
257 15-04-2021 21:20:00 5.1 C 81 % 2.12 C
258 15-04-2021 21:25:00 5.1 C 81 % 2.12 C
259 15-04-2021 21:30:00 5 C 82 % 2.19 C
260 15-04-2021 21:35:00 4.9 C 82 % 2.09 C
261 15-04-2021 21:40:00 4.9 C 83 % 2.26 C
262 15-04-2021 21:45:00 4.9 C 83 % 2.26 C
263 15-04-2021 21:50:00 4.9 C 83 % 2.26 C
264 15-04-2021 21:55:00 4.8 C 83 % 2.16 C
265 15-04-2021 22:00:00 4.7 C 83 % 2.07 C
266 15-04-2021 22:05:00 4.4 C 83 % 1.77 C
267 15-04-2021 22:10:00 4.3 C 83 % 1.67 C
268 15-04-2021 22:15:00 4.2 C 83 % 1.58 C
269 15-04-2021 22:20:00 4 C 83 % 1.38 C
270 15-04-2021 22:25:00 3.9 C 83 % 1.28 C
271 15-04-2021 22:30:00 3.8 C 83 % 1.19 C
272 15-04-2021 22:35:00 3.7 C 83 % 1.09 C
273 15-04-2021 22:40:00 3.7 C 83 % 1.09 C
274 15-04-2021 22:45:00 3.5 C 83 % 0.89 C
275 15-04-2021 22:50:00 3.4 C 83 % 0.79 C
Sensor: Nr:Datum:Temp:Feuchte:Taupunkt:
Aussen-T/F 276 15-04-2021 22:55:00 3.3 C 83 % 0.7 C
277 15-04-2021 23:00:00 3.2 C 84 % 0.76 C
278 15-04-2021 23:05:00 3.2 C 84 % 0.76 C
279 15-04-2021 23:10:00 3.1 C 84 % 0.67 C
280 15-04-2021 23:15:00 2.9 C 84 % 0.47 C
281 15-04-2021 23:20:00 2.8 C 83 % 0.21 C
282 15-04-2021 23:25:00 2.7 C 84 % 0.27 C
283 15-04-2021 23:30:00 2.6 C 84 % 0.18 C
284 15-04-2021 23:35:00 2.4 C 84 % -0.02 C
285 15-04-2021 23:40:00 2.3 C 85 % 0.04 C
286 15-04-2021 23:45:00 2.3 C 85 % 0.04 C
287 15-04-2021 23:50:00 2.2 C 85 % -0.05 C
288 15-04-2021 23:55:00 2.1 C 86 % 0.01 C

Legende:
   Min
   Max


Maximal/Minimal-Werte vom 15.04.2021 - 15.04.2021

Sensor Min Max Avg
Temp
(Aussen-T/F)
-1.3 °C
15-04-2021  06:55:00
9.6 °C
15-04-2021  15:30:00
3.69 °C
Feuchte
(Aussen-T/F)
56 %
15-04-2021  15:30:00
96 %
15-04-2021  09:15:00
81.68 %
Taupunkt
(Aussen-T/F)
-2 C
15-04-2021  06:55:00
3.82 C
15-04-2021  17:00:00
0.61 C

Die Daten stammen von einer Davis Vantage Pro 2 Wetter-Station und werden unter Linux mit der Software wview2wettercgi und aufbereitet. Alle Angaben erfolgen ohne Gewähr für ihre Vollständigkeit oder Richtigkeit.
Kontakt: Rainer Krienke krienke@uni-koblenz.de . Meine Webseiten an der Uni Koblenz oder privat.
Version: $Revision: 0.78 $